N428 VNLK-VNLK
Flight info
| Callsign | N428 |
|---|---|
| Flight time | N/A |
| Altitude | 10000 |
| Route | VFR |
| Aircraft | DA62/L-V/N |
Departure
| Time | 2025-07-31 16:31 |
|---|---|
| Airport | Tenzing-Hillary Airport (VNLK) |
Arrival
| Time | N/A |
|---|---|
| Airport | Tenzing-Hillary Airport (VNLK) |
| Time | Latitude | Longitude | Altitude | Speed | Heading |
|---|---|---|---|---|---|
| 2025-07-31 16:13 | 27.68727 | 86.73157 | 9333 ft | 0 kts | 23° |
| 2025-07-31 16:14 | 27.68770 | 86.73167 | 9328 ft | 0 kts | 329° |
| 2025-07-31 16:15 | 27.68775 | 86.73165 | 9328 ft | 4 kts | 353° |
| 2025-07-31 16:15 | 27.68788 | 86.73159 | 9331 ft | 0 kts | 279° |
| 2025-07-31 16:16 | 27.68762 | 86.73111 | 9326 ft | 30 kts | 237° |
| 2025-07-31 16:16 | 27.68164 | 86.71882 | 9398 ft | 104 kts | 250° |
| 2025-07-31 16:17 | 27.67965 | 86.70288 | 9906 ft | 124 kts | 193° |
| 2025-07-31 16:17 | 27.67585 | 86.71752 | 9765 ft | 147 kts | 29° |
| 2025-07-31 16:18 | 27.68735 | 86.73049 | 9290 ft | 65 kts | 59° |
| 2025-07-31 16:18 | 27.68809 | 86.73192 | 9363 ft | 30 kts | 85° |
| 2025-07-31 16:19 | 27.68773 | 86.73170 | 9327 ft | 0 kts | 339° |
| 2025-07-31 16:20 | 27.68556 | 86.72706 | 9112 ft | 99 kts | 238° |
| 2025-07-31 16:20 | 27.68453 | 86.71174 | 9486 ft | 117 kts | 334° |
| 2025-07-31 16:21 | 27.68655 | 86.70191 | 9778 ft | 133 kts | 182° |
| 2025-07-31 16:21 | 27.68168 | 86.71941 | 9288 ft | 148 kts | 64° |
| 2025-07-31 16:21 | 27.68617 | 86.72829 | 9168 ft | 97 kts | 60° |
| 2025-07-31 16:22 | 27.69046 | 86.73011 | 9539 ft | 174 kts | 159° |
| 2025-07-31 16:22 | 27.67839 | 86.71991 | 9867 ft | 110 kts | 232° |
| 2025-07-31 16:23 | 27.67629 | 86.71458 | 10142 ft | 189 kts | 126° |
| 2025-07-31 16:24 | 27.68641 | 86.72810 | 9165 ft | 94 kts | 40° |
| 2025-07-31 16:24 | 27.68558 | 86.72719 | 9111 ft | 1 kts | 51° |
| 2025-07-31 16:25 | 27.68705 | 86.73004 | 9267 ft | 41 kts | 60° |
| 2025-07-31 16:25 | 27.68770 | 86.73194 | 9334 ft | 4 kts | 159° |
| 2025-07-31 16:25 | 27.68774 | 86.73163 | 9331 ft | 0 kts | 326° |
| 2025-07-31 16:26 | 27.68735 | 86.73053 | 9289 ft | 52 kts | 238° |
| 2025-07-31 16:26 | 27.68799 | 86.73191 | 9335 ft | 3 kts | 258° |
| 2025-07-31 16:27 | 27.68607 | 86.71996 | 9153 ft | 0 kts | 296° |
| 2025-07-31 16:28 | 27.68483 | 86.70838 | 9965 ft | 166 kts | 171° |
| 2025-07-31 16:28 | 27.68526 | 86.72645 | 9137 ft | 144 kts | 59° |
| 2025-07-31 16:28 | 27.68771 | 86.73175 | 9334 ft | 14 kts | 56° |
| 2025-07-31 16:29 | 27.68687 | 86.72955 | 9235 ft | 47 kts | 222° |
| 2025-07-31 16:29 | 27.68071 | 86.71555 | 9401 ft | 112 kts | 249° |
| 2025-07-31 16:30 | 27.67508 | 86.69783 | 9935 ft | 132 kts | 244° |
| 2025-07-31 16:30 | 27.66700 | 86.68037 | 10812 ft | 111 kts | 240° |
| 2025-07-31 16:31 | 27.66362 | 86.67323 | 11258 ft | 97 kts | 242° |
| 2025-07-31 16:32 | 27.66330 | 86.68427 | 10016 ft | 192 kts | 77° |
| 2025-07-31 16:32 | 27.65648 | 86.69795 | 11322 ft | 124 kts | 221° |
| 2025-07-31 16:32 | 27.65359 | 86.68952 | 11708 ft | 119 kts | 271° |
| 2025-07-31 16:33 | 27.66054 | 86.67047 | 12087 ft | 142 kts | 313° |
| 2025-07-31 16:33 | 27.67252 | 86.65527 | 12996 ft | 129 kts | 312° |
| 2025-07-31 16:34 | 27.67239 | 86.63858 | 14084 ft | 90 kts | 239° |
| 2025-07-31 16:34 | 27.66893 | 86.62516 | 14471 ft | 110 kts | 289° |
| 2025-07-31 16:35 | 27.66971 | 86.60789 | 15327 ft | 129 kts | 300° |
| 2025-07-31 16:36 | 27.68357 | 86.59376 | 16049 ft | 144 kts | 334° |
| 2025-07-31 16:36 | 27.69698 | 86.59876 | 16085 ft | 506 kts | 45° |
| 2025-07-31 16:36 | 27.69649 | 86.59618 | 16586 ft | 0 kts | 236° |
| 2025-07-31 16:37 | 27.69287 | 86.58598 | 19532 ft | 193 kts | 267° |
| 2025-07-31 16:37 | 27.70621 | 86.57474 | 16150 ft | 13 kts | 133° |
| 2025-07-31 16:38 | 27.70969 | 86.57696 | 22084 ft | 29 kts | 63° |
| 2025-07-31 16:38 | 27.70038 | 86.55423 | 22854 ft | 219 kts | 323° |
| 2025-07-31 16:39 | 27.73880 | 86.55616 | 22047 ft | 198 kts | 25° |
| 2025-07-31 16:40 | 27.75526 | 86.57561 | 21460 ft | 139 kts | 81° |
| 2025-07-31 16:40 | 27.75779 | 86.58896 | 20581 ft | 0 kts | 61° |
| 2025-07-31 16:41 | 27.75773 | 86.58873 | 20571 ft | 0 kts | 76° |
| 2025-07-31 16:41 | 27.75104 | 86.59099 | 19643 ft | 156 kts | 171° |
| 2025-07-31 16:42 | 27.72698 | 86.59799 | 18683 ft | 204 kts | 148° |
| 2025-07-31 16:42 | 27.70110 | 86.61644 | 16855 ft | 247 kts | 146° |
| 2025-07-31 16:43 | 27.66410 | 86.65751 | 12181 ft | 238 kts | 108° |
| 2025-07-31 16:44 | 27.66159 | 86.67349 | 11110 ft | 18 kts | 7° |
| 2025-07-31 16:44 | 27.64382 | 86.67761 | 10434 ft | 0 kts | 344° |
| 2025-07-31 16:44 | 27.63443 | 86.68017 | 9032 ft | 111 kts | 284° |